createdAt,value
2022-07-26T00:01:53.498Z,22.47
2022-07-26T00:04:55.911Z,22.45
2022-07-26T00:08:10.730Z,22.39
2022-07-26T00:11:13.407Z,22.36
2022-07-26T00:14:15.551Z,22.30
2022-07-26T00:17:18.104Z,22.20
2022-07-26T00:20:20.280Z,22.06
2022-07-26T00:23:22.824Z,22.08
2022-07-26T00:26:24.947Z,22.11
2022-07-26T00:29:27.415Z,22.15
2022-07-26T00:32:29.560Z,22.17
2022-07-26T00:35:32.154Z,22.17
2022-07-26T00:38:34.566Z,22.13
2022-07-26T00:41:37.433Z,22.06
2022-07-26T00:44:45.175Z,22.03
2022-07-26T00:47:47.731Z,21.95
2022-07-26T00:50:50.293Z,21.94
2022-07-26T00:53:52.851Z,21.97
2022-07-26T00:56:55.350Z,21.91
2022-07-26T01:00:01.101Z,21.90
2022-07-26T01:03:03.399Z,21.84
2022-07-26T01:06:06.079Z,21.75
2022-07-26T01:09:09.395Z,21.74
2022-07-26T01:12:12.702Z,21.75
2022-07-26T01:15:16.147Z,21.73
2022-07-26T01:18:18.599Z,21.66
2022-07-26T01:21:22.160Z,21.66
2022-07-26T01:24:24.591Z,21.56
2022-07-26T01:27:29.604Z,21.49
2022-07-26T01:30:36.164Z,21.41
2022-07-26T01:33:38.353Z,21.40
2022-07-26T01:36:40.730Z,21.43
2022-07-26T01:39:44.232Z,21.39
2022-07-26T01:42:46.708Z,21.41
2022-07-26T01:45:50.170Z,21.40
2022-07-26T01:48:53.398Z,21.31
2022-07-26T01:51:55.532Z,21.36
2022-07-26T01:54:57.951Z,21.46
2022-07-26T01:58:00.083Z,21.44
2022-07-26T02:01:02.583Z,21.41
2022-07-26T02:04:05.355Z,21.35
2022-07-26T02:07:13.135Z,21.33
2022-07-26T02:10:16.471Z,21.32
2022-07-26T02:13:19.800Z,21.24
2022-07-26T02:16:22.387Z,21.15
2022-07-26T02:19:24.583Z,21.11
2022-07-26T02:22:27.115Z,21.08
2022-07-26T02:25:30.053Z,21.08
2022-07-26T02:28:32.482Z,21.06
2022-07-26T02:31:34.645Z,20.93
2022-07-26T02:34:37.484Z,20.94
2022-07-26T02:37:42.597Z,20.87
2022-07-26T02:40:46.535Z,20.78
2022-07-26T02:43:48.675Z,20.75
2022-07-26T02:46:51.597Z,20.79
2022-07-26T02:49:53.764Z,20.81
2022-07-26T02:52:56.555Z,20.74
2022-07-26T02:55:58.712Z,20.76
2022-07-26T02:59:01.130Z,20.82
2022-07-26T03:02:04.610Z,20.85
2022-07-26T03:05:08.289Z,20.81
2022-07-26T03:08:10.492Z,20.81
2022-07-26T03:11:12.878Z,20.78
2022-07-26T03:14:14.987Z,20.79
2022-07-26T03:17:17.570Z,20.75
2022-07-26T03:20:19.690Z,20.71
2022-07-26T03:23:22.071Z,20.67
2022-07-26T03:26:24.224Z,20.67
2022-07-26T03:29:26.694Z,20.60
2022-07-26T03:32:28.831Z,20.57
2022-07-26T03:35:31.238Z,20.64
2022-07-26T03:38:38.933Z,20.65
2022-07-26T03:41:41.664Z,20.66
2022-07-26T03:44:43.857Z,20.63
2022-07-26T03:47:46.559Z,20.56
2022-07-26T03:50:48.725Z,20.54
2022-07-26T03:53:51.471Z,20.53
2022-07-26T03:56:53.775Z,20.58
2022-07-26T03:59:56.200Z,20.53
2022-07-26T04:02:58.457Z,20.57
2022-07-26T04:06:00.999Z,20.59
2022-07-26T04:09:05.394Z,20.60
2022-07-26T04:12:08.817Z,20.63
2022-07-26T04:15:11.159Z,20.65
2022-07-26T04:18:16.469Z,20.61
2022-07-26T04:21:18.813Z,20.63
2022-07-26T04:24:21.213Z,20.64
2022-07-26T04:27:27.987Z,20.69
2022-07-26T04:30:30.398Z,20.73
2022-07-26T04:33:33.143Z,20.80
2022-07-26T04:36:35.523Z,20.96
2022-07-26T04:39:37.645Z,21.09
2022-07-26T04:42:40.099Z,21.18
2022-07-26T04:45:42.311Z,21.29
2022-07-26T04:48:44.763Z,21.40
2022-07-26T04:51:46.923Z,21.59
2022-07-26T04:54:49.330Z,21.69
2022-07-26T04:57:52.567Z,21.84
2022-07-26T05:01:11.197Z,22.02
2022-07-26T05:04:13.561Z,22.24
2022-07-26T05:07:15.992Z,22.42
2022-07-26T05:10:20.078Z,22.57
2022-07-26T05:13:23.071Z,22.66
2022-07-26T05:16:32.549Z,22.78
2022-07-26T05:19:35.151Z,22.85
2022-07-26T05:22:37.935Z,22.87
2022-07-26T05:25:41.533Z,22.92
2022-07-26T05:28:43.664Z,22.97
2022-07-26T05:31:46.163Z,22.99
2022-07-26T05:34:48.335Z,23.02
2022-07-26T05:37:50.825Z,23.04
2022-07-26T05:40:52.930Z,23.08
2022-07-26T05:43:55.308Z,23.18
2022-07-26T05:46:57.527Z,23.31
2022-07-26T05:50:00.214Z,23.47
2022-07-26T05:53:02.359Z,23.63
2022-07-26T05:56:05.344Z,23.87
2022-07-26T05:59:07.445Z,24.11
2022-07-26T06:02:10.023Z,24.17
2022-07-26T06:05:12.881Z,24.26
2022-07-26T06:08:15.039Z,24.35
2022-07-26T06:11:17.443Z,24.44
2022-07-26T06:14:20.263Z,24.60
2022-07-26T06:17:22.885Z,24.68
2022-07-26T06:20:25.079Z,24.89
2022-07-26T06:23:30.966Z,25.21
2022-07-26T06:26:37.159Z,25.24
2022-07-26T06:29:40.441Z,25.36
2022-07-26T06:32:45.413Z,25.59
2022-07-26T06:35:48.077Z,25.74
2022-07-26T06:38:50.245Z,25.81
2022-07-26T06:41:52.625Z,25.95
2022-07-26T06:44:56.892Z,26.06
2022-07-26T06:47:59.421Z,26.10
2022-07-26T06:51:01.621Z,26.14
2022-07-26T06:54:05.514Z,26.18
2022-07-26T06:57:08.149Z,26.27
2022-07-26T07:00:11.243Z,26.36
2022-07-26T07:03:13.405Z,26.37
2022-07-26T07:06:16.291Z,26.45
2022-07-26T07:09:18.643Z,26.54
2022-07-26T07:12:21.547Z,26.66
2022-07-26T07:15:23.689Z,26.73
2022-07-26T07:18:26.091Z,26.79
2022-07-26T07:21:28.315Z,26.83
2022-07-26T07:24:30.970Z,26.93
2022-07-26T07:27:33.774Z,27.16
2022-07-26T07:30:36.170Z,27.34
2022-07-26T07:33:53.016Z,27.51
2022-07-26T07:36:56.465Z,27.73
2022-07-26T07:39:59.729Z,27.99
2022-07-26T07:43:02.231Z,28.30
2022-07-26T07:46:04.575Z,28.56
2022-07-26T07:49:07.417Z,28.79
2022-07-26T07:52:10.052Z,29.03
2022-07-26T07:55:36.106Z,29.11
2022-07-26T07:58:34.833Z,29.35
2022-07-26T08:01:40.477Z,29.69
2022-07-26T08:04:43.479Z,29.76
2022-07-26T08:07:45.736Z,29.91
2022-07-26T08:10:52.041Z,29.87
2022-07-26T08:13:54.623Z,29.61
2022-07-26T08:16:57.694Z,29.58
2022-07-26T08:20:00.615Z,29.52
2022-07-26T08:23:03.265Z,29.41
2022-07-26T08:26:06.941Z,29.32
2022-07-26T08:29:09.647Z,29.68
2022-07-26T08:32:11.942Z,29.63
2022-07-26T08:35:17.803Z,30.01
2022-07-26T08:38:22.115Z,30.19
2022-07-26T08:41:24.509Z,30.37
2022-07-26T08:44:26.764Z,30.57
2022-07-26T08:47:37.723Z,30.81
2022-07-26T08:50:42.287Z,30.71
2022-07-26T08:53:45.404Z,30.78
2022-07-26T08:56:52.502Z,31.17
2022-07-26T09:00:29.747Z,31.15
2022-07-26T09:03:32.495Z,31.58
2022-07-26T09:06:34.902Z,32.00
2022-07-26T09:09:56.008Z,32.05
2022-07-26T09:12:58.601Z,31.70
2022-07-26T09:16:10.793Z,31.22
2022-07-26T09:19:19.528Z,30.31
2022-07-26T09:22:21.624Z,30.02
2022-07-26T09:25:25.387Z,29.64
2022-07-26T09:28:29.890Z,29.38
2022-07-26T09:31:32.445Z,29.20
2022-07-26T09:34:34.607Z,29.11
2022-07-26T09:37:41.102Z,28.93
2022-07-26T09:40:44.903Z,28.63
2022-07-26T09:43:54.522Z,28.44
2022-07-26T09:46:59.120Z,28.26
2022-07-26T09:50:13.925Z,27.84
2022-07-26T09:53:16.139Z,27.95
2022-07-26T09:56:19.830Z,27.46
2022-07-26T09:59:24.101Z,27.21
2022-07-26T10:02:27.543Z,26.84
2022-07-26T10:05:29.955Z,26.53
2022-07-26T10:08:32.272Z,26.16
2022-07-26T10:11:55.094Z,25.87
2022-07-26T10:14:57.293Z,25.66
2022-07-26T10:17:59.724Z,25.18
2022-07-26T10:21:20.834Z,24.60
2022-07-26T10:24:29.104Z,24.31
2022-07-26T10:27:41.649Z,24.12
2022-07-26T10:30:44.153Z,23.99
2022-07-26T10:33:49.515Z,24.01
2022-07-26T10:37:01.823Z,24.00
2022-07-26T10:40:19.211Z,23.82
2022-07-26T10:47:04.412Z,23.47
2022-07-26T10:50:07.941Z,23.37
2022-07-26T10:53:16.576Z,23.20
2022-07-26T10:56:18.965Z,23.21
2022-07-26T10:59:54.242Z,23.26
2022-07-26T11:02:57.883Z,23.27
2022-07-26T11:06:09.350Z,23.32
2022-07-26T11:09:12.650Z,23.43
2022-07-26T11:12:19.247Z,23.44
2022-07-26T11:15:21.663Z,23.50
2022-07-26T11:18:27.878Z,23.54
2022-07-26T11:21:30.433Z,23.46
2022-07-26T11:24:32.669Z,23.47
2022-07-26T11:27:35.073Z,23.56
2022-07-26T11:30:56.104Z,23.49
2022-07-26T11:33:58.560Z,23.64
2022-07-26T11:37:03.439Z,23.74
2022-07-26T11:40:06.511Z,23.85
2022-07-26T11:43:08.764Z,23.92
2022-07-26T11:46:11.304Z,23.97
2022-07-26T11:49:25.081Z,23.93
2022-07-26T11:52:33.567Z,23.98
2022-07-26T11:55:35.776Z,24.13
2022-07-26T11:58:42.057Z,24.07
2022-07-26T12:01:49.552Z,24.10
2022-07-26T12:05:13.931Z,24.15
2022-07-26T12:08:16.445Z,24.13
2022-07-26T12:11:20.082Z,24.19
2022-07-26T12:14:30.018Z,24.27
2022-07-26T12:17:34.987Z,24.23
2022-07-26T12:20:37.799Z,24.35
2022-07-26T12:23:42.256Z,24.47
2022-07-26T12:26:44.413Z,24.52
2022-07-26T12:29:49.544Z,24.65
2022-07-26T12:32:54.399Z,24.75
2022-07-26T12:36:01.759Z,24.64
2022-07-26T12:39:05.582Z,24.76
2022-07-26T12:42:33.025Z,24.83
2022-07-26T12:45:36.098Z,24.90
2022-07-26T12:48:41.671Z,24.95
2022-07-26T12:51:44.786Z,24.76
2022-07-26T12:54:49.771Z,24.73
2022-07-26T12:57:55.783Z,24.78
2022-07-26T13:00:59.506Z,24.82
2022-07-26T13:04:01.854Z,24.78
2022-07-26T13:07:05.296Z,24.82
2022-07-26T13:13:32.007Z,24.88
2022-07-26T13:16:34.150Z,24.97
2022-07-26T13:19:37.159Z,24.79
2022-07-26T13:22:43.120Z,24.95
2022-07-26T13:25:46.314Z,25.37
2022-07-26T13:28:49.709Z,25.75
2022-07-26T13:31:52.455Z,25.81
2022-07-26T13:34:54.575Z,25.77
2022-07-26T13:37:57.224Z,25.61
2022-07-26T13:41:00.302Z,25.59
2022-07-26T13:44:03.921Z,25.52
2022-07-26T13:47:06.274Z,25.47
2022-07-26T13:50:09.579Z,25.55
2022-07-26T13:53:11.759Z,25.77
2022-07-26T13:56:14.226Z,26.03
2022-07-26T13:59:16.999Z,26.17
2022-07-26T14:02:19.511Z,26.02
2022-07-26T14:05:22.381Z,26.04
2022-07-26T14:08:24.486Z,26.01
2022-07-26T14:11:27.457Z,26.00
2022-07-26T14:14:29.547Z,26.03
2022-07-26T14:17:32.118Z,26.14
2022-07-26T14:20:34.247Z,26.22
2022-07-26T14:23:36.612Z,26.21
2022-07-26T14:26:38.741Z,26.20
2022-07-26T14:29:41.108Z,26.17
2022-07-26T14:32:43.259Z,26.13
2022-07-26T14:35:46.738Z,26.10
2022-07-26T14:38:49.971Z,26.10
2022-07-26T14:41:52.999Z,26.08
2022-07-26T14:44:55.088Z,26.00
2022-07-26T14:47:57.457Z,26.04
2022-07-26T14:51:09.074Z,26.06
2022-07-26T14:54:13.977Z,26.05
2022-07-26T14:57:16.550Z,26.05
2022-07-26T15:00:18.958Z,26.07
2022-07-26T15:03:21.201Z,26.04
2022-07-26T15:06:23.571Z,26.00
2022-07-26T15:09:25.741Z,25.99
2022-07-26T15:12:28.694Z,25.96
2022-07-26T15:15:30.875Z,25.90
2022-07-26T15:18:33.711Z,25.93
2022-07-26T15:21:35.858Z,25.79
2022-07-26T15:24:40.054Z,25.81
2022-07-26T15:27:42.814Z,25.87
2022-07-26T15:30:45.564Z,26.04
2022-07-26T15:33:48.919Z,26.10
2022-07-26T15:36:51.403Z,26.11
2022-07-26T15:39:53.716Z,25.97
2022-07-26T15:42:56.306Z,25.92
2022-07-26T15:45:58.438Z,25.97
2022-07-26T15:49:02.325Z,25.94
2022-07-26T15:52:04.937Z,25.94
2022-07-26T15:55:08.983Z,25.88
2022-07-26T15:58:11.168Z,25.84
2022-07-26T16:01:13.759Z,25.76
2022-07-26T16:04:16.293Z,25.72
2022-07-26T16:07:18.560Z,25.77
2022-07-26T16:10:21.070Z,25.70
2022-07-26T16:13:23.204Z,25.80
2022-07-26T16:16:25.651Z,25.72
2022-07-26T16:19:28.374Z,25.82
2022-07-26T16:22:31.691Z,25.79
2022-07-26T16:25:33.801Z,25.81
2022-07-26T16:28:36.331Z,25.75
2022-07-26T16:31:41.419Z,25.70
2022-07-26T16:34:43.958Z,25.71
2022-07-26T16:37:46.098Z,25.68
2022-07-26T16:40:48.484Z,25.76
2022-07-26T16:43:50.658Z,25.77
2022-07-26T16:46:53.379Z,25.69
2022-07-26T16:49:55.552Z,25.65
2022-07-26T16:52:57.931Z,25.70
2022-07-26T16:56:00.167Z,25.69
2022-07-26T16:59:02.524Z,25.81
2022-07-26T17:02:04.980Z,25.71
2022-07-26T17:05:08.052Z,25.60
2022-07-26T17:08:10.405Z,25.64
2022-07-26T17:11:12.783Z,25.64
2022-07-26T17:14:16.138Z,25.58
2022-07-26T17:17:18.576Z,25.57
2022-07-26T17:20:20.930Z,25.60
2022-07-26T17:23:23.361Z,25.58
2022-07-26T17:26:25.486Z,25.55
2022-07-26T17:29:27.880Z,25.49
2022-07-26T17:32:30.363Z,25.53
2022-07-26T17:35:32.838Z,25.35
2022-07-26T17:38:34.972Z,25.32
2022-07-26T17:41:37.324Z,25.16
2022-07-26T17:44:42.635Z,25.17
2022-07-26T17:47:45.022Z,25.15
2022-07-26T17:50:47.280Z,25.02
2022-07-26T17:53:53.136Z,24.99
2022-07-26T17:56:55.600Z,25.04
2022-07-26T17:59:59.916Z,24.96
2022-07-26T18:03:06.300Z,24.79
2022-07-26T18:06:08.911Z,24.66
2022-07-26T18:09:11.804Z,24.64
2022-07-26T18:12:15.834Z,24.61
2022-07-26T18:15:17.931Z,24.49
2022-07-26T18:18:20.371Z,24.45
2022-07-26T18:21:22.629Z,24.37
2022-07-26T18:24:25.504Z,24.34
2022-07-26T18:27:28.236Z,24.26
2022-07-26T18:30:32.097Z,24.26
2022-07-26T18:33:34.227Z,24.20
2022-07-26T18:36:36.656Z,24.12
2022-07-26T18:39:38.823Z,24.10
2022-07-26T18:42:41.407Z,24.05
2022-07-26T18:45:43.616Z,23.97
2022-07-26T18:48:46.141Z,24.00
2022-07-26T18:51:49.104Z,23.93
2022-07-26T18:54:53.202Z,23.87
2022-07-26T18:57:55.410Z,23.78
2022-07-26T19:00:57.821Z,23.71
2022-07-26T19:04:04.647Z,23.72
2022-07-26T19:07:09.166Z,23.73
2022-07-26T19:10:12.284Z,23.76
2022-07-26T19:13:14.772Z,23.71
2022-07-26T19:16:16.978Z,23.78
2022-07-26T19:19:21.461Z,23.71
2022-07-26T19:22:23.902Z,23.67
2022-07-26T19:25:26.431Z,23.74
2022-07-26T19:28:28.578Z,23.71
2022-07-26T19:31:31.882Z,23.63
2022-07-26T19:34:34.414Z,23.64
2022-07-26T19:37:36.999Z,23.57
2022-07-26T19:40:39.173Z,23.59
2022-07-26T19:43:41.591Z,23.55
2022-07-26T19:46:44.426Z,23.43
2022-07-26T19:49:46.855Z,23.42
2022-07-26T19:52:48.965Z,23.44
2022-07-26T19:55:52.241Z,23.46
2022-07-26T19:59:00.276Z,23.34
2022-07-26T20:02:03.171Z,23.32
2022-07-26T20:05:06.714Z,23.27
2022-07-26T20:08:08.830Z,23.27
2022-07-26T20:11:12.060Z,23.18
2022-07-26T20:14:14.212Z,23.10
2022-07-26T20:17:17.017Z,23.10
2022-07-26T20:20:19.981Z,23.11
2022-07-26T20:23:23.271Z,23.08
2022-07-26T20:26:25.416Z,23.10
2022-07-26T20:29:27.843Z,23.08
2022-07-26T20:32:29.964Z,23.01
2022-07-26T20:35:32.439Z,22.98
2022-07-26T20:38:34.642Z,22.98
2022-07-26T20:41:37.044Z,23.06
2022-07-26T20:44:39.567Z,23.06
2022-07-26T20:47:42.898Z,23.02
2022-07-26T20:50:45.138Z,22.98
2022-07-26T20:53:47.557Z,22.86
2022-07-26T20:56:49.947Z,22.88
2022-07-26T20:59:52.323Z,22.83
2022-07-26T21:02:54.597Z,22.74
2022-07-26T21:05:57.601Z,22.78
2022-07-26T21:08:59.974Z,22.71
2022-07-26T21:12:03.183Z,22.74
2022-07-26T21:15:06.232Z,22.80
2022-07-26T21:18:09.371Z,22.80
2022-07-26T21:21:14.426Z,22.77
2022-07-26T21:24:16.770Z,22.70
2022-07-26T21:27:18.895Z,22.62
2022-07-26T21:30:21.263Z,22.61
2022-07-26T21:33:23.538Z,22.57
2022-07-26T21:36:25.943Z,22.53
2022-07-26T21:39:28.025Z,22.53
2022-07-26T21:42:30.419Z,22.49
2022-07-26T21:45:32.586Z,22.53
2022-07-26T21:48:35.300Z,22.47
2022-07-26T21:51:37.450Z,22.48
2022-07-26T21:54:39.867Z,22.43
2022-07-26T21:57:44.413Z,22.40
2022-07-26T22:00:46.981Z,22.48
2022-07-26T22:03:49.577Z,22.47
2022-07-26T22:06:51.715Z,22.50
2022-07-26T22:09:54.092Z,22.43
2022-07-26T22:12:56.209Z,22.44
2022-07-26T22:15:58.580Z,22.50
2022-07-26T22:19:02.436Z,22.44
2022-07-26T22:22:05.702Z,22.36
2022-07-26T22:25:08.318Z,22.32
2022-07-26T22:28:11.945Z,22.41
2022-07-26T22:31:19.914Z,22.34
2022-07-26T22:34:22.345Z,22.34
2022-07-26T22:37:24.459Z,22.38
2022-07-26T22:40:26.860Z,22.30
2022-07-26T22:43:28.961Z,22.25
2022-07-26T22:46:31.350Z,22.22
2022-07-26T22:49:33.591Z,22.10
2022-07-26T22:52:36.580Z,21.95
2022-07-26T22:55:38.758Z,21.90
2022-07-26T22:58:41.131Z,21.77
2022-07-26T23:01:43.251Z,21.74
2022-07-26T23:04:45.616Z,21.56
2022-07-26T23:07:49.555Z,21.44
2022-07-26T23:10:52.437Z,21.28
2022-07-26T23:13:58.990Z,21.26
2022-07-26T23:17:01.753Z,21.13
2022-07-26T23:20:05.735Z,21.12
2022-07-26T23:23:08.147Z,21.03
2022-07-26T23:26:10.255Z,20.92
2022-07-26T23:29:13.106Z,20.66
2022-07-26T23:32:15.601Z,20.62
2022-07-26T23:35:18.060Z,20.53
2022-07-26T23:38:20.218Z,20.54
2022-07-26T23:41:22.973Z,20.52
2022-07-26T23:44:25.109Z,20.45
2022-07-26T23:47:27.506Z,20.38
2022-07-26T23:50:29.702Z,20.39
2022-07-26T23:53:32.075Z,20.23
2022-07-26T23:56:34.197Z,20.27
2022-07-26T23:59:36.601Z,20.32
